sensor_id;sensor_type;location;lat;lon;timestamp;temperature;humidity
38902;DHT22;24661;53.566;9.910;2023-03-14T00:00:17;10.70;99.90
38902;DHT22;24661;53.566;9.910;2023-03-14T00:02:53;10.60;99.90
38902;DHT22;24661;53.566;9.910;2023-03-14T00:05:20;10.50;99.90
38902;DHT22;24661;53.566;9.910;2023-03-14T00:07:49;10.50;99.90
38902;DHT22;24661;53.566;9.910;2023-03-14T00:10:24;10.40;99.90
38902;DHT22;24661;53.566;9.910;2023-03-14T00:12:50;10.40;99.90
38902;DHT22;24661;53.566;9.910;2023-03-14T00:15:16;10.30;99.90
38902;DHT22;24661;53.566;9.910;2023-03-14T00:17:45;10.40;99.90
38902;DHT22;24661;53.566;9.910;2023-03-14T00:20:11;10.40;99.90
38902;DHT22;24661;53.566;9.910;2023-03-14T00:22:41;10.30;99.90
38902;DHT22;24661;53.566;9.910;2023-03-14T00:25:10;10.30;99.90
38902;DHT22;24661;53.566;9.910;2023-03-14T00:27:36;10.90;99.90
38902;DHT22;24661;53.566;9.910;2023-03-14T00:30:03;10.50;99.90
38902;DHT22;24661;53.566;9.910;2023-03-14T00:32:31;10.60;99.90
38902;DHT22;24661;53.566;9.910;2023-03-14T00:35:06;10.60;99.90
38902;DHT22;24661;53.566;9.910;2023-03-14T00:37:38;10.60;99.90
38902;DHT22;24661;53.566;9.910;2023-03-14T00:40:08;10.60;99.90
38902;DHT22;24661;53.566;9.910;2023-03-14T00:42:34;10.60;99.90
38902;DHT22;24661;53.566;9.910;2023-03-14T00:45:08;10.70;99.90
38902;DHT22;24661;53.566;9.910;2023-03-14T00:47:35;10.70;99.90
38902;DHT22;24661;53.566;9.910;2023-03-14T00:50:01;10.70;99.90
38902;DHT22;24661;53.566;9.910;2023-03-14T00:52:27;10.70;99.90
38902;DHT22;24661;53.566;9.910;2023-03-14T00:54:52;9.20;99.90
38902;DHT22;24661;53.566;9.910;2023-03-14T00:57:18;10.70;99.90
38902;DHT22;24661;53.566;9.910;2023-03-14T00:59:47;10.70;99.90
38902;DHT22;24661;53.566;9.910;2023-03-14T01:02:13;10.70;99.90
38902;DHT22;24661;53.566;9.910;2023-03-14T01:04:39;10.70;99.90
38902;DHT22;24661;53.566;9.910;2023-03-14T01:07:05;10.80;99.90
38902;DHT22;24661;53.566;9.910;2023-03-14T01:09:30;10.80;99.90
38902;DHT22;24661;53.566;9.910;2023-03-14T01:11:56;10.80;99.90
38902;DHT22;24661;53.566;9.910;2023-03-14T01:14:22;10.80;99.90
38902;DHT22;24661;53.566;9.910;2023-03-14T01:16:47;10.90;99.90
38902;DHT22;24661;53.566;9.910;2023-03-14T01:19:15;10.90;99.90
38902;DHT22;24661;53.566;9.910;2023-03-14T01:21:41;10.90;99.90
38902;DHT22;24661;53.566;9.910;2023-03-14T01:24:07;10.90;99.90
38902;DHT22;24661;53.566;9.910;2023-03-14T01:26:34;11.00;99.90
38902;DHT22;24661;53.566;9.910;2023-03-14T01:29:01;10.90;99.90
38902;DHT22;24661;53.566;9.910;2023-03-14T01:31:27;11.00;99.90
38902;DHT22;24661;53.566;9.910;2023-03-14T01:33:52;12.60;99.90
38902;DHT22;24661;53.566;9.910;2023-03-14T01:36:18;11.00;99.90
38902;DHT22;24661;53.566;9.910;2023-03-14T01:38:44;11.00;99.90
38902;DHT22;24661;53.566;9.910;2023-03-14T01:41:14;11.00;99.90
38902;DHT22;24661;53.566;9.910;2023-03-14T01:43:41;11.00;99.90
38902;DHT22;24661;53.566;9.910;2023-03-14T01:48:59;10.90;99.90
38902;DHT22;24661;53.566;9.910;2023-03-14T01:54:06;10.80;99.90
38902;DHT22;24661;53.566;9.910;2023-03-14T01:56:33;10.80;99.90
38902;DHT22;24661;53.566;9.910;2023-03-14T01:59:01;10.70;99.90
38902;DHT22;24661;53.566;9.910;2023-03-14T02:01:29;10.70;99.90
38902;DHT22;24661;53.566;9.910;2023-03-14T02:03:59;10.70;99.90
38902;DHT22;24661;53.566;9.910;2023-03-14T02:06:31;10.70;99.90
38902;DHT22;24661;53.566;9.910;2023-03-14T02:09:01;10.70;99.90
38902;DHT22;24661;53.566;9.910;2023-03-14T02:11:28;10.80;99.90
38902;DHT22;24661;53.566;9.910;2023-03-14T02:13:57;10.70;99.90
38902;DHT22;24661;53.566;9.910;2023-03-14T02:16:23;10.70;99.90
38902;DHT22;24661;53.566;9.910;2023-03-14T02:18:48;10.70;99.90
38902;DHT22;24661;53.566;9.910;2023-03-14T02:21:35;10.70;99.90
38902;DHT22;24661;53.566;9.910;2023-03-14T02:24:20;10.60;99.90
38902;DHT22;24661;53.566;9.910;2023-03-14T02:27:09;10.60;99.90
38902;DHT22;24661;53.566;9.910;2023-03-14T02:29:39;10.50;99.90
38902;DHT22;24661;53.566;9.910;2023-03-14T02:32:06;10.50;99.90
38902;DHT22;24661;53.566;9.910;2023-03-14T02:34:33;10.50;99.90
38902;DHT22;24661;53.566;9.910;2023-03-14T02:37:00;10.40;99.90
38902;DHT22;24661;53.566;9.910;2023-03-14T02:39:36;10.50;99.90
38902;DHT22;24661;53.566;9.910;2023-03-14T02:42:03;10.50;99.90
38902;DHT22;24661;53.566;9.910;2023-03-14T02:44:30;10.50;99.90
38902;DHT22;24661;53.566;9.910;2023-03-14T02:46:56;10.60;99.90
38902;DHT22;24661;53.566;9.910;2023-03-14T02:49:22;10.60;99.90
38902;DHT22;24661;53.566;9.910;2023-03-14T02:51:48;10.60;99.90
38902;DHT22;24661;53.566;9.910;2023-03-14T02:54:15;10.70;99.90
38902;DHT22;24661;53.566;9.910;2023-03-14T02:56:41;10.70;99.90
38902;DHT22;24661;53.566;9.910;2023-03-14T02:59:06;10.70;99.90
38902;DHT22;24661;53.566;9.910;2023-03-14T03:01:34;10.70;99.90
38902;DHT22;24661;53.566;9.910;2023-03-14T03:03:59;10.80;99.90
38902;DHT22;24661;53.566;9.910;2023-03-14T03:06:25;10.80;99.90
38902;DHT22;24661;53.566;9.910;2023-03-14T03:08:51;10.80;99.90
38902;DHT22;24661;53.566;9.910;2023-03-14T03:11:16;10.80;99.90
38902;DHT22;24661;53.566;9.910;2023-03-14T03:13:42;10.90;99.90
38902;DHT22;24661;53.566;9.910;2023-03-14T03:16:08;10.90;99.90
38902;DHT22;24661;53.566;9.910;2023-03-14T03:18:34;11.00;99.90
38902;DHT22;24661;53.566;9.910;2023-03-14T03:21:01;11.00;99.90
38902;DHT22;24661;53.566;9.910;2023-03-14T03:23:27;11.00;99.90
38902;DHT22;24661;53.566;9.910;2023-03-14T03:25:52;11.10;99.90
38902;DHT22;24661;53.566;9.910;2023-03-14T03:28:19;11.10;99.90
38902;DHT22;24661;53.566;9.910;2023-03-14T03:30:45;11.10;99.90
38902;DHT22;24661;53.566;9.910;2023-03-14T03:33:11;11.10;99.90
38902;DHT22;24661;53.566;9.910;2023-03-14T03:35:48;11.20;99.90
38902;DHT22;24661;53.566;9.910;2023-03-14T03:38:15;11.20;99.90
38902;DHT22;24661;53.566;9.910;2023-03-14T03:40:41;11.10;99.90
38902;DHT22;24661;53.566;9.910;2023-03-14T03:43:07;11.20;99.90
38902;DHT22;24661;53.566;9.910;2023-03-14T03:45:32;11.20;99.90
38902;DHT22;24661;53.566;9.910;2023-03-14T03:47:58;11.10;99.90
38902;DHT22;24661;53.566;9.910;2023-03-14T03:50:24;11.10;99.90
38902;DHT22;24661;53.566;9.910;2023-03-14T03:52:49;11.10;99.90
38902;DHT22;24661;53.566;9.910;2023-03-14T03:55:15;11.00;99.90
38902;DHT22;24661;53.566;9.910;2023-03-14T03:57:40;11.00;99.90
38902;DHT22;24661;53.566;9.910;2023-03-14T04:00:06;11.00;99.90
38902;DHT22;24661;53.566;9.910;2023-03-14T04:02:34;11.00;99.90
38902;DHT22;24661;53.566;9.910;2023-03-14T04:05:00;11.00;99.90
38902;DHT22;24661;53.566;9.910;2023-03-14T04:07:25;11.00;99.90
38902;DHT22;24661;53.566;9.910;2023-03-14T04:09:51;10.90;99.90
38902;DHT22;24661;53.566;9.910;2023-03-14T04:12:16;10.90;99.90
38902;DHT22;24661;53.566;9.910;2023-03-14T04:14:42;10.90;99.90
38902;DHT22;24661;53.566;9.910;2023-03-14T04:17:08;10.90;99.90
38902;DHT22;24661;53.566;9.910;2023-03-14T04:19:34;10.90;99.90
38902;DHT22;24661;53.566;9.910;2023-03-14T04:21:59;10.90;99.90
38902;DHT22;24661;53.566;9.910;2023-03-14T04:24:25;10.90;99.90
38902;DHT22;24661;53.566;9.910;2023-03-14T04:26:50;10.90;99.90
38902;DHT22;24661;53.566;9.910;2023-03-14T04:29:16;10.90;99.90
38902;DHT22;24661;53.566;9.910;2023-03-14T04:31:41;10.90;99.90
38902;DHT22;24661;53.566;9.910;2023-03-14T04:34:07;10.90;99.90
38902;DHT22;24661;53.566;9.910;2023-03-14T04:36:33;10.90;99.90
38902;DHT22;24661;53.566;9.910;2023-03-14T04:38:58;10.90;99.90
38902;DHT22;24661;53.566;9.910;2023-03-14T04:41:24;10.90;99.90
38902;DHT22;24661;53.566;9.910;2023-03-14T04:43:49;11.00;99.90
38902;DHT22;24661;53.566;9.910;2023-03-14T04:46:15;11.00;99.90
38902;DHT22;24661;53.566;9.910;2023-03-14T04:48:41;11.00;99.90
38902;DHT22;24661;53.566;9.910;2023-03-14T04:51:07;11.00;99.90
38902;DHT22;24661;53.566;9.910;2023-03-14T04:53:33;11.00;99.90
38902;DHT22;24661;53.566;9.910;2023-03-14T04:55:59;11.00;99.90
38902;DHT22;24661;53.566;9.910;2023-03-14T04:58:25;11.00;99.90
38902;DHT22;24661;53.566;9.910;2023-03-14T05:00:51;11.00;99.90
38902;DHT22;24661;53.566;9.910;2023-03-14T05:03:18;11.00;99.90
38902;DHT22;24661;53.566;9.910;2023-03-14T05:05:44;10.90;99.90
38902;DHT22;24661;53.566;9.910;2023-03-14T05:08:10;10.80;99.90
38902;DHT22;24661;53.566;9.910;2023-03-14T05:10:36;10.70;99.90
38902;DHT22;24661;53.566;9.910;2023-03-14T05:13:02;10.50;99.90
38902;DHT22;24661;53.566;9.910;2023-03-14T05:15:28;10.20;99.90
38902;DHT22;24661;53.566;9.910;2023-03-14T05:17:53;9.90;99.90
38902;DHT22;24661;53.566;9.910;2023-03-14T05:20:20;9.60;99.90
38902;DHT22;24661;53.566;9.910;2023-03-14T05:22:46;9.50;99.90
38902;DHT22;24661;53.566;9.910;2023-03-14T05:25:12;9.40;99.90
38902;DHT22;24661;53.566;9.910;2023-03-14T05:27:38;9.30;99.90
38902;DHT22;24661;53.566;9.910;2023-03-14T05:30:04;9.20;99.90
38902;DHT22;24661;53.566;9.910;2023-03-14T05:32:30;9.30;99.90
38902;DHT22;24661;53.566;9.910;2023-03-14T05:34:56;9.20;99.90
38902;DHT22;24661;53.566;9.910;2023-03-14T05:37:27;9.20;99.90
38902;DHT22;24661;53.566;9.910;2023-03-14T05:39:52;9.20;99.90
38902;DHT22;24661;53.566;9.910;2023-03-14T05:42:18;9.20;99.90
38902;DHT22;24661;53.566;9.910;2023-03-14T05:44:44;9.20;99.90
38902;DHT22;24661;53.566;9.910;2023-03-14T05:47:09;9.20;99.90
38902;DHT22;24661;53.566;9.910;2023-03-14T05:49:35;9.20;99.90
38902;DHT22;24661;53.566;9.910;2023-03-14T05:52:00;9.20;99.90
38902;DHT22;24661;53.566;9.910;2023-03-14T05:54:26;9.20;99.90
38902;DHT22;24661;53.566;9.910;2023-03-14T05:56:51;9.20;99.90
38902;DHT22;24661;53.566;9.910;2023-03-14T05:59:17;9.20;99.90
38902;DHT22;24661;53.566;9.910;2023-03-14T06:01:43;9.20;99.90
38902;DHT22;24661;53.566;9.910;2023-03-14T06:04:09;9.30;99.90
38902;DHT22;24661;53.566;9.910;2023-03-14T06:06:34;9.30;99.90
38902;DHT22;24661;53.566;9.910;2023-03-14T06:09:00;9.40;99.90
38902;DHT22;24661;53.566;9.910;2023-03-14T06:11:25;9.40;99.90
38902;DHT22;24661;53.566;9.910;2023-03-14T06:13:51;9.30;99.90
38902;DHT22;24661;53.566;9.910;2023-03-14T06:16:17;9.40;99.90
38902;DHT22;24661;53.566;9.910;2023-03-14T06:18:42;9.40;99.90
38902;DHT22;24661;53.566;9.910;2023-03-14T06:21:08;9.40;99.90
38902;DHT22;24661;53.566;9.910;2023-03-14T06:23:33;9.40;99.90
38902;DHT22;24661;53.566;9.910;2023-03-14T06:25:59;9.40;99.90
38902;DHT22;24661;53.566;9.910;2023-03-14T06:28:25;9.40;99.90
38902;DHT22;24661;53.566;9.910;2023-03-14T06:30:50;9.40;99.90
38902;DHT22;24661;53.566;9.910;2023-03-14T06:33:16;9.40;99.90
38902;DHT22;24661;53.566;9.910;2023-03-14T06:35:42;9.40;99.90
38902;DHT22;24661;53.566;9.910;2023-03-14T06:38:07;9.40;99.90
38902;DHT22;24661;53.566;9.910;2023-03-14T06:40:33;9.40;99.90
38902;DHT22;24661;53.566;9.910;2023-03-14T06:42:58;9.40;99.90
38902;DHT22;24661;53.566;9.910;2023-03-14T06:45:24;9.50;99.90
38902;DHT22;24661;53.566;9.910;2023-03-14T06:47:49;9.50;99.90
38902;DHT22;24661;53.566;9.910;2023-03-14T06:50:15;9.50;99.90
38902;DHT22;24661;53.566;9.910;2023-03-14T06:52:40;9.50;99.90
38902;DHT22;24661;53.566;9.910;2023-03-14T06:55:12;9.50;99.90
38902;DHT22;24661;53.566;9.910;2023-03-14T06:57:37;9.50;99.90
38902;DHT22;24661;53.566;9.910;2023-03-14T07:00:04;9.50;99.90
38902;DHT22;24661;53.566;9.910;2023-03-14T07:02:30;9.60;99.90
38902;DHT22;24661;53.566;9.910;2023-03-14T07:04:56;9.60;99.90
38902;DHT22;24661;53.566;9.910;2023-03-14T07:07:21;9.60;99.90
38902;DHT22;24661;53.566;9.910;2023-03-14T07:09:47;9.70;99.90
38902;DHT22;24661;53.566;9.910;2023-03-14T07:12:12;9.80;99.90
38902;DHT22;24661;53.566;9.910;2023-03-14T07:14:38;9.80;99.90
38902;DHT22;24661;53.566;9.910;2023-03-14T07:17:04;9.80;99.90
38902;DHT22;24661;53.566;9.910;2023-03-14T07:19:29;9.80;99.90
38902;DHT22;24661;53.566;9.910;2023-03-14T07:21:55;9.80;99.90
38902;DHT22;24661;53.566;9.910;2023-03-14T07:24:20;9.90;99.90
38902;DHT22;24661;53.566;9.910;2023-03-14T07:26:46;9.90;99.90
38902;DHT22;24661;53.566;9.910;2023-03-14T07:29:12;9.90;99.90
38902;DHT22;24661;53.566;9.910;2023-03-14T07:31:37;9.90;99.90
38902;DHT22;24661;53.566;9.910;2023-03-14T07:34:03;9.90;99.90
38902;DHT22;24661;53.566;9.910;2023-03-14T07:36:28;10.00;99.90
38902;DHT22;24661;53.566;9.910;2023-03-14T07:38:54;10.00;99.90
38902;DHT22;24661;53.566;9.910;2023-03-14T07:41:19;10.10;99.90
38902;DHT22;24661;53.566;9.910;2023-03-14T07:43:46;10.00;99.90
38902;DHT22;24661;53.566;9.910;2023-03-14T07:46:13;10.00;99.90
38902;DHT22;24661;53.566;9.910;2023-03-14T07:48:39;9.90;99.90
38902;DHT22;24661;53.566;9.910;2023-03-14T07:51:05;9.90;99.90
38902;DHT22;24661;53.566;9.910;2023-03-14T07:53:31;9.90;99.90
38902;DHT22;24661;53.566;9.910;2023-03-14T07:55:57;9.90;99.90
38902;DHT22;24661;53.566;9.910;2023-03-14T07:58:22;9.90;99.90
38902;DHT22;24661;53.566;9.910;2023-03-14T08:00:49;10.00;99.90
38902;DHT22;24661;53.566;9.910;2023-03-14T08:03:16;10.00;99.90
38902;DHT22;24661;53.566;9.910;2023-03-14T08:05:42;10.00;99.90
38902;DHT22;24661;53.566;9.910;2023-03-14T08:08:08;10.10;99.90
38902;DHT22;24661;53.566;9.910;2023-03-14T08:10:33;10.10;99.90
38902;DHT22;24661;53.566;9.910;2023-03-14T08:13:00;10.20;99.90
38902;DHT22;24661;53.566;9.910;2023-03-14T08:15:28;10.30;99.90
38902;DHT22;24661;53.566;9.910;2023-03-14T08:17:54;10.40;99.90
38902;DHT22;24661;53.566;9.910;2023-03-14T08:20:25;10.50;99.90
38902;DHT22;24661;53.566;9.910;2023-03-14T08:22:51;10.50;99.90
38902;DHT22;24661;53.566;9.910;2023-03-14T08:25:17;10.50;99.90
38902;DHT22;24661;53.566;9.910;2023-03-14T08:27:43;10.50;99.90
38902;DHT22;24661;53.566;9.910;2023-03-14T08:30:14;10.50;99.90
38902;DHT22;24661;53.566;9.910;2023-03-14T08:32:40;10.60;99.90
38902;DHT22;24661;53.566;9.910;2023-03-14T08:35:07;10.70;99.90
38902;DHT22;24661;53.566;9.910;2023-03-14T08:37:33;10.70;99.90
38902;DHT22;24661;53.566;9.910;2023-03-14T08:39:59;10.70;99.90
38902;DHT22;24661;53.566;9.910;2023-03-14T08:42:25;10.70;99.90
38902;DHT22;24661;53.566;9.910;2023-03-14T08:44:52;10.70;99.90
38902;DHT22;24661;53.566;9.910;2023-03-14T08:47:18;10.80;99.90
38902;DHT22;24661;53.566;9.910;2023-03-14T08:49:44;10.80;99.90
38902;DHT22;24661;53.566;9.910;2023-03-14T08:52:09;10.80;99.90
38902;DHT22;24661;53.566;9.910;2023-03-14T08:54:35;10.70;99.90
38902;DHT22;24661;53.566;9.910;2023-03-14T08:57:00;10.70;99.90
38902;DHT22;24661;53.566;9.910;2023-03-14T08:59:26;10.60;99.90
38902;DHT22;24661;53.566;9.910;2023-03-14T09:01:52;10.50;99.90
38902;DHT22;24661;53.566;9.910;2023-03-14T09:04:17;10.50;99.90
38902;DHT22;24661;53.566;9.910;2023-03-14T09:06:43;10.50;99.90
38902;DHT22;24661;53.566;9.910;2023-03-14T09:09:09;10.50;99.90
38902;DHT22;24661;53.566;9.910;2023-03-14T09:11:34;10.50;99.90
38902;DHT22;24661;53.566;9.910;2023-03-14T09:14:00;10.50;99.90
38902;DHT22;24661;53.566;9.910;2023-03-14T09:16:26;9.90;99.90
38902;DHT22;24661;53.566;9.910;2023-03-14T09:18:52;10.60;99.90
38902;DHT22;24661;53.566;9.910;2023-03-14T09:21:20;10.60;99.90
38902;DHT22;24661;53.566;9.910;2023-03-14T09:23:46;10.60;99.90
38902;DHT22;24661;53.566;9.910;2023-03-14T09:26:12;10.60;99.90
38902;DHT22;24661;53.566;9.910;2023-03-14T09:28:38;10.60;99.90
38902;DHT22;24661;53.566;9.910;2023-03-14T09:31:07;10.60;99.90
38902;DHT22;24661;53.566;9.910;2023-03-14T09:33:34;10.60;99.90
38902;DHT22;24661;53.566;9.910;2023-03-14T09:35:59;10.60;99.90
38902;DHT22;24661;53.566;9.910;2023-03-14T09:38:25;10.70;99.90
38902;DHT22;24661;53.566;9.910;2023-03-14T09:40:52;10.80;99.90
38902;DHT22;24661;53.566;9.910;2023-03-14T09:43:19;10.80;99.90
38902;DHT22;24661;53.566;9.910;2023-03-14T09:45:48;10.80;99.90
38902;DHT22;24661;53.566;9.910;2023-03-14T09:48:22;10.80;99.90
38902;DHT22;24661;53.566;9.910;2023-03-14T09:50:51;10.70;99.90
38902;DHT22;24661;53.566;9.910;2023-03-14T09:53:22;9.90;99.90
38902;DHT22;24661;53.566;9.910;2023-03-14T09:55:50;9.10;99.90
38902;DHT22;24661;53.566;9.910;2023-03-14T09:58:19;8.70;99.90
38902;DHT22;24661;53.566;9.910;2023-03-14T10:00:44;8.20;99.90
38902;DHT22;24661;53.566;9.910;2023-03-14T10:05:40;7.80;99.90
38902;DHT22;24661;53.566;9.910;2023-03-14T10:08:06;7.60;99.90
38902;DHT22;24661;53.566;9.910;2023-03-14T10:10:32;7.30;99.90
38902;DHT22;24661;53.566;9.910;2023-03-14T10:13:14;7.30;99.90
38902;DHT22;24661;53.566;9.910;2023-03-14T10:15:40;7.20;99.90
38902;DHT22;24661;53.566;9.910;2023-03-14T10:18:11;7.20;99.90
38902;DHT22;24661;53.566;9.910;2023-03-14T10:20:43;7.00;99.90
38902;DHT22;24661;53.566;9.910;2023-03-14T10:25:40;6.90;99.90
38902;DHT22;24661;53.566;9.910;2023-03-14T10:31:10;6.70;99.90
38902;DHT22;24661;53.566;9.910;2023-03-14T10:33:37;6.60;99.90
38902;DHT22;24661;53.566;9.910;2023-03-14T10:36:23;6.60;99.90
38902;DHT22;24661;53.566;9.910;2023-03-14T10:41:50;6.10;99.90
38902;DHT22;24661;53.566;9.910;2023-03-14T10:44:21;5.70;99.90
38902;DHT22;24661;53.566;9.910;2023-03-14T10:46:56;5.50;99.90
38902;DHT22;24661;53.566;9.910;2023-03-14T10:49:31;5.50;99.90
38902;DHT22;24661;53.566;9.910;2023-03-14T10:52:09;5.50;99.90
38902;DHT22;24661;53.566;9.910;2023-03-14T10:54:38;5.30;99.90
38902;DHT22;24661;53.566;9.910;2023-03-14T10:57:04;5.20;99.90
38902;DHT22;24661;53.566;9.910;2023-03-14T10:59:41;5.10;99.90
38902;DHT22;24661;53.566;9.910;2023-03-14T11:05:00;4.90;99.90
38902;DHT22;24661;53.566;9.910;2023-03-14T11:07:38;5.00;99.90
38902;DHT22;24661;53.566;9.910;2023-03-14T11:10:35;4.80;99.90
38902;DHT22;24661;53.566;9.910;2023-03-14T11:13:16;4.90;99.90
38902;DHT22;24661;53.566;9.910;2023-03-14T11:18:48;4.90;99.90
38902;DHT22;24661;53.566;9.910;2023-03-14T11:27:08;5.00;99.90
38902;DHT22;24661;53.566;9.910;2023-03-14T11:29:41;5.00;99.90
38902;DHT22;24661;53.566;9.910;2023-03-14T11:37:51;4.90;99.90
38902;DHT22;24661;53.566;9.910;2023-03-14T11:40:23;4.80;99.90
38902;DHT22;24661;53.566;9.910;2023-03-14T11:43:08;4.90;99.90
38902;DHT22;24661;53.566;9.910;2023-03-14T11:45:41;5.00;99.90
38902;DHT22;24661;53.566;9.910;2023-03-14T11:48:41;5.10;99.90
38902;DHT22;24661;53.566;9.910;2023-03-14T11:51:19;5.40;99.90
38902;DHT22;24661;53.566;9.910;2023-03-14T11:54:21;5.40;99.90
38902;DHT22;24661;53.566;9.910;2023-03-14T11:56:52;5.40;99.90
38902;DHT22;24661;53.566;9.910;2023-03-14T11:59:27;5.40;99.90
38902;DHT22;24661;53.566;9.910;2023-03-14T12:01:59;5.50;99.90
38902;DHT22;24661;53.566;9.910;2023-03-14T12:07:02;5.60;99.90
38902;DHT22;24661;53.566;9.910;2023-03-14T12:09:29;5.60;99.90
38902;DHT22;24661;53.566;9.910;2023-03-14T12:11:57;5.60;99.90
38902;DHT22;24661;53.566;9.910;2023-03-14T12:14:30;5.60;99.90
38902;DHT22;24661;53.566;9.910;2023-03-14T12:20:19;5.70;99.90
38902;DHT22;24661;53.566;9.910;2023-03-14T12:23:02;5.60;99.90
38902;DHT22;24661;53.566;9.910;2023-03-14T12:25:33;5.60;99.90
38902;DHT22;24661;53.566;9.910;2023-03-14T12:28:03;5.60;99.90
38902;DHT22;24661;53.566;9.910;2023-03-14T12:30:51;5.70;99.90
38902;DHT22;24661;53.566;9.910;2023-03-14T12:33:26;5.80;99.90
38902;DHT22;24661;53.566;9.910;2023-03-14T12:36:00;5.80;99.90
38902;DHT22;24661;53.566;9.910;2023-03-14T12:43:54;5.80;99.90
38902;DHT22;24661;53.566;9.910;2023-03-14T12:46:21;5.90;99.90
38902;DHT22;24661;53.566;9.910;2023-03-14T12:51:41;5.80;99.90
38902;DHT22;24661;53.566;9.910;2023-03-14T12:57:12;5.70;99.90
38902;DHT22;24661;53.566;9.910;2023-03-14T12:59:46;5.60;99.90
38902;DHT22;24661;53.566;9.910;2023-03-14T13:04:46;5.50;99.90
38902;DHT22;24661;53.566;9.910;2023-03-14T13:13:21;5.60;99.90
38902;DHT22;24661;53.566;9.910;2023-03-14T13:15:49;5.70;99.90
38902;DHT22;24661;53.566;9.910;2023-03-14T13:18:34;5.90;99.90
38902;DHT22;24661;53.566;9.910;2023-03-14T13:21:11;6.20;99.90
38902;DHT22;24661;53.566;9.910;2023-03-14T13:23:38;6.50;99.90
38902;DHT22;24661;53.566;9.910;2023-03-14T13:26:11;6.50;99.90
38902;DHT22;24661;53.566;9.910;2023-03-14T13:28:38;6.40;99.90
38902;DHT22;24661;53.566;9.910;2023-03-14T13:31:04;6.50;99.90
38902;DHT22;24661;53.566;9.910;2023-03-14T13:33:33;6.40;99.90
38902;DHT22;24661;53.566;9.910;2023-03-14T13:36:03;6.40;99.90
38902;DHT22;24661;53.566;9.910;2023-03-14T13:38:31;6.50;99.90
38902;DHT22;24661;53.566;9.910;2023-03-14T13:41:04;6.40;99.90
38902;DHT22;24661;53.566;9.910;2023-03-14T13:43:33;6.40;99.90
38902;DHT22;24661;53.566;9.910;2023-03-14T13:46:10;6.60;99.90
38902;DHT22;24661;53.566;9.910;2023-03-14T13:48:44;6.80;99.90
38902;DHT22;24661;53.566;9.910;2023-03-14T13:51:15;6.80;99.90
38902;DHT22;24661;53.566;9.910;2023-03-14T13:53:55;7.30;99.90
38902;DHT22;24661;53.566;9.910;2023-03-14T13:56:22;7.80;99.90
38902;DHT22;24661;53.566;9.910;2023-03-14T13:58:48;7.60;99.90
38902;DHT22;24661;53.566;9.910;2023-03-14T14:03:48;7.10;99.90
38902;DHT22;24661;53.566;9.910;2023-03-14T14:06:35;6.70;99.90
38902;DHT22;24661;53.566;9.910;2023-03-14T14:09:11;6.40;99.90
38902;DHT22;24661;53.566;9.910;2023-03-14T14:11:55;6.30;99.90
38902;DHT22;24661;53.566;9.910;2023-03-14T14:14:43;6.50;99.90
38902;DHT22;24661;53.566;9.910;2023-03-14T14:17:14;8.40;99.90
38902;DHT22;24661;53.566;9.910;2023-03-14T14:19:44;9.10;99.90
38902;DHT22;24661;53.566;9.910;2023-03-14T14:22:11;9.20;99.90
38902;DHT22;24661;53.566;9.910;2023-03-14T14:24:38;7.70;99.90
38902;DHT22;24661;53.566;9.910;2023-03-14T14:27:17;8.70;99.90
38902;DHT22;24661;53.566;9.910;2023-03-14T14:29:44;8.10;99.90
38902;DHT22;24661;53.566;9.910;2023-03-14T14:32:21;7.90;99.90
38902;DHT22;24661;53.566;9.910;2023-03-14T14:34:57;7.60;99.90
38902;DHT22;24661;53.566;9.910;2023-03-14T14:37:28;7.30;99.90
38902;DHT22;24661;53.566;9.910;2023-03-14T14:39:57;7.20;99.90
38902;DHT22;24661;53.566;9.910;2023-03-14T14:42:31;7.00;99.90
38902;DHT22;24661;53.566;9.910;2023-03-14T14:44:58;7.10;99.90
38902;DHT22;24661;53.566;9.910;2023-03-14T14:47:27;7.10;99.90
38902;DHT22;24661;53.566;9.910;2023-03-14T14:49:56;7.10;99.90
38902;DHT22;24661;53.566;9.910;2023-03-14T14:52:43;7.10;99.90
38902;DHT22;24661;53.566;9.910;2023-03-14T14:55:34;7.10;99.90
38902;DHT22;24661;53.566;9.910;2023-03-14T14:58:14;6.60;99.90
38902;DHT22;24661;53.566;9.910;2023-03-14T15:00:57;6.50;99.90
38902;DHT22;24661;53.566;9.910;2023-03-14T15:03:26;6.70;99.90
38902;DHT22;24661;53.566;9.910;2023-03-14T15:05:53;6.80;99.90
38902;DHT22;24661;53.566;9.910;2023-03-14T15:08:21;7.00;99.90
38902;DHT22;24661;53.566;9.910;2023-03-14T15:10:47;7.20;99.90
38902;DHT22;24661;53.566;9.910;2023-03-14T15:13:13;7.30;99.90
38902;DHT22;24661;53.566;9.910;2023-03-14T15:15:38;6.70;99.90
38902;DHT22;24661;53.566;9.910;2023-03-14T15:18:16;6.50;99.90
38902;DHT22;24661;53.566;9.910;2023-03-14T15:20:44;6.60;99.90
38902;DHT22;24661;53.566;9.910;2023-03-14T15:23:12;6.40;99.90
38902;DHT22;24661;53.566;9.910;2023-03-14T15:25:38;6.50;99.90
38902;DHT22;24661;53.566;9.910;2023-03-14T15:28:26;6.40;99.90
38902;DHT22;24661;53.566;9.910;2023-03-14T15:30:54;6.50;99.90
38902;DHT22;24661;53.566;9.910;2023-03-14T15:33:21;6.50;99.90
38902;DHT22;24661;53.566;9.910;2023-03-14T15:35:48;6.50;99.90
38902;DHT22;24661;53.566;9.910;2023-03-14T15:38:17;6.50;99.90
38902;DHT22;24661;53.566;9.910;2023-03-14T15:40:46;6.40;99.90
38902;DHT22;24661;53.566;9.910;2023-03-14T15:43:12;6.40;99.90
38902;DHT22;24661;53.566;9.910;2023-03-14T15:45:38;6.30;99.90
38902;DHT22;24661;53.566;9.910;2023-03-14T15:48:05;6.20;99.90
38902;DHT22;24661;53.566;9.910;2023-03-14T15:50:31;6.20;99.90
38902;DHT22;24661;53.566;9.910;2023-03-14T15:52:57;6.20;99.90
38902;DHT22;24661;53.566;9.910;2023-03-14T15:55:23;6.00;99.90
38902;DHT22;24661;53.566;9.910;2023-03-14T15:57:49;6.10;99.90
38902;DHT22;24661;53.566;9.910;2023-03-14T16:00:17;6.10;99.90
38902;DHT22;24661;53.566;9.910;2023-03-14T16:02:44;6.10;99.90
38902;DHT22;24661;53.566;9.910;2023-03-14T16:05:11;6.00;99.90
38902;DHT22;24661;53.566;9.910;2023-03-14T16:07:37;6.00;99.90
38902;DHT22;24661;53.566;9.910;2023-03-14T16:10:04;6.00;99.90
38902;DHT22;24661;53.566;9.910;2023-03-14T16:12:34;5.90;99.90
38902;DHT22;24661;53.566;9.910;2023-03-14T16:15:00;5.90;99.90
38902;DHT22;24661;53.566;9.910;2023-03-14T16:17:26;5.80;99.90
38902;DHT22;24661;53.566;9.910;2023-03-14T16:19:52;5.80;99.90
38902;DHT22;24661;53.566;9.910;2023-03-14T16:22:18;5.70;99.90
38902;DHT22;24661;53.566;9.910;2023-03-14T16:24:47;5.60;99.90
38902;DHT22;24661;53.566;9.910;2023-03-14T16:27:13;5.60;99.90
38902;DHT22;24661;53.566;9.910;2023-03-14T16:29:40;5.50;99.90
38902;DHT22;24661;53.566;9.910;2023-03-14T16:32:06;5.60;99.90
38902;DHT22;24661;53.566;9.910;2023-03-14T16:34:32;5.50;99.90
38902;DHT22;24661;53.566;9.910;2023-03-14T16:37:05;5.30;99.90
38902;DHT22;24661;53.566;9.910;2023-03-14T16:39:31;5.20;99.90
38902;DHT22;24661;53.566;9.910;2023-03-14T16:42:02;5.20;99.90
38902;DHT22;24661;53.566;9.910;2023-03-14T16:44:28;5.20;99.90
38902;DHT22;24661;53.566;9.910;2023-03-14T16:46:56;5.10;99.90
38902;DHT22;24661;53.566;9.910;2023-03-14T16:49:22;5.10;99.90